Grants Pass, OR (97527)

10:25 AM PST on January 23, 2017 (GMT -0800)
Cathedral Hills | | Change Station

Elev 1257 ft 42.41 °N, 123.32 °W | Updated 4 seconds ago

Partly Cloudy
Partly Cloudy
35.8 °F
Feels Like 36 °F
N
0.0
Wind Variable Wind from ENE
Gusts 1.0 mph

Today
High -- | Low -- °F
--% Chance of Precip.
Yesterday
High -- | Low -- °F
Precip. -- in
Pressure 29.76 in
Visibility 0.5 miles
Clouds
Windchill 36 °F
Dew Point 34 °F
Humidity 95%
Rainfall 0.00 in
Snow Depth Not available.
7:34 AM 5:16 PM
Waning Crescent, 17% visible
METAR KMFR 231753Z VRB03KT 1/2SM R14/2400V5000FT FG VV002 00/00 A2974 RMK AO2 SLP076 I1000 I6001 T00000000 10000 21006 51010
Pressure 29.76 in
Visibility 0.5 miles
Clouds
Windchill 36 °F
Dew Point 34 °F
Humidity 95%
Rainfall 0.00 in
Snow Depth Not available.
7:34 AM 5:16 PM
Waning Crescent, 17% visible
METAR KMFR 231753Z VRB03KT 1/2SM R14/2400V5000FT FG VV002 00/00 A2974 RMK AO2 SLP076 I1000 I6001 T00000000 10000 21006 51010

Get Your Daily Forecast Email!

Thanks for signing up!

Be on the lookout for a verification email in your inbox.

You'll start receiving the daily forecast at 8 AM.

×

10-Day Weather Forecast

Almanac

Astronomy

Jan. 23, 2017 Rise Set
Actual Time
Civil Twilight
Nautical Twilight
Astronomical Twilight
Moon
Length of Visible Light
Length of Day
Tomorrow will be .
, % of the Moon is Illuminated

Today's Extremes

State Highs State Lows

Community

WunderPhotos

Upload Photos

1,962,540 photos uploaded!

WunderBlog® & News

Nearby

Air Quality

  Air Quality AQ Index Pollutant
Not available.

Snow Depth

Station Depth Elevation

Earthquake Activity

City Distance Mag. Time & Date
Minimum magnitude displayed is 2.5.

Coastal Water Temperatures

Place Temperature

Stations

Nearby Weather Stations

Station Location Temp. Windchill Dew Point Humidity Wind Precip. Elev Updated Type
                   

Watches & Warnings

There are currently no watches in effect.